This is the latest recevied weather packets stored in our database for station/object E22FEY-1. If no packets are shown the sender has not sent any weather packets the latest 10 day(s).
| Time | Temp. | Humidity | Pressure | Rain* | Wind** | Luminosity | Snow |
|---|---|---|---|---|---|---|---|
| 1777889652 | 30.56° C | 57% | 1008 hPa | - | - | 0 W/m² | - |
| 1777888728 | 31.67° C | 56% | 1008 hPa | - | - | 0 W/m² | - |
| 1777887804 | 37.22° C | 46% | 1007 hPa | - | - | 0 W/m² | - |
| 1777886880 | 36.67° C | 47% | 1006 hPa | - | - | 0 W/m² | - |
| 1777885956 | 37.78° C | 45% | 1006 hPa | - | - | 0 W/m² | - |
| 1777885032 | 38.89° C | 42% | 1006 hPa | - | - | 0 W/m² | - |
| 1777884108 | 39.44° C | 42% | 1006 hPa | - | - | 0 W/m² | - |
| 1777883183 | 40.56° C | 40% | 1005 hPa | - | - | 0 W/m² | - |
| 1777882259 | 39.44° C | 39% | 1006 hPa | - | - | 0 W/m² | - |
| 1777881334 | 40.56° C | 37% | 1006 hPa | - | - | 0 W/m² | - |
| 1777880410 | 40° C | 38% | 1006 hPa | - | - | 0 W/m² | - |
| 1777879486 | 40° C | 37% | 1006 hPa | - | - | 0 W/m² | - |
| 1777878562 | 39.44° C | 37% | 1006 hPa | - | - | 0 W/m² | - |
| 1777877638 | 40° C | 38% | 1007 hPa | - | - | 0 W/m² | - |
| 1777876714 | 39.44° C | 40% | 1007 hPa | - | - | 0 W/m² | - |
| 1777875790 | 39.44° C | 38% | 1008 hPa | - | - | 0 W/m² | - |
| 1777874865 | 40° C | 39% | 1008 hPa | - | - | 0 W/m² | - |
| 1777873941 | 40° C | 40% | 1008 hPa | - | - | 0 W/m² | - |
| 1777873017 | 40° C | 40% | 1008 hPa | - | - | 0 W/m² | - |
| 1777872092 | 39.44° C | 42% | 1009 hPa | - | - | 0 W/m² | - |
| 1777871168 | 38.33° C | 44% | 1009 hPa | - | - | 0 W/m² | - |
| 1777870243 | 38.89° C | 43% | 1009 hPa | - | - | 0 W/m² | - |
| 1777869319 | 38.33° C | 45% | 1009 hPa | - | - | 0 W/m² | - |
| 1777868395 | 39.44° C | 42% | 1009 hPa | - | - | 0 W/m² | - |
| 1777867471 | 39.44° C | 41% | 1010 hPa | - | - | 0 W/m² | - |
* Rain since midnight (hover to see other rain measurements)
** Current wind speed in m/s (hover to see current wind gust speed)